MUCF/CFG METAR and TAF weather

Enter ICAO airport designator
Station Type Date Time Source
MUCF METAR 2020/11/27 13:54 UTC NOAA

MUCF 271354Z 09005KT 020V150 9999 FEW025 25/21 Q1018


Station Type Date Time Source
MUCF Decoded METAR 2020/11/27 13:54 UTC NOAA

Cienfuegos, Las Villas, Cuba (MUCF) 22-09N 080-24W 39M
Nov 27, 2020 - 08:54 AM EST / 2020.11.27 1354 UTC
Wind: from the E (090 degrees) at 6 MPH (5 KT) (direction variable):0
Visibility: greater than 7 mile(s):0
Sky conditions: mostly clear
Temperature: 77 F (25 C)
Dew Point: 69 F (21 C)
Relative Humidity: 78%
Pressure (altimeter): 30.06 in. Hg (1018 hPa)
ob: MUCF 271354Z 09005KT 020V150 9999 FEW025 25/21 Q1018
cycle: 14

Station Type Date Time Source
MUCF TAF 2020/11/27 12:03 UTC NOAA

MUCF 271100Z 2712/2724 07010KT 9000 SCT020

Example: see airport list